Time;durP1;ratioP1;P1;durP2;ratioP2;P2;SDS_P1;SDS_P2;PMS_P1;PMS_P2;Temp;Humidity;BMP_temperature;BMP_pressure;BME280_temperature;BME280_humidity;BME280_pressure;Samples;Min_cycle;Max_cycle;Signal;HPM_P1;HPM_P2
2023/08/17 00:01:12;;;;;;;;;;;;;;;18.91;96.39;101918.53;10624423;28;20362;-69
2023/08/17 00:06:14;;;;;;;;;;;;;;;18.88;95.14;101926.72;10624889;28;20006;-69
2023/08/17 00:11:16;;;;;;;;;;;;;;;18.46;97.27;101928.03;10624241;28;20263;-69
2023/08/17 00:16:19;;;;;;;;;;;;;;;19.12;94.69;101933.81;10624841;28;19931;-69
2023/08/17 00:21:21;;;;;;;;;;;;;;;19.26;94.46;101925.63;10624114;28;19945;-69
2023/08/17 00:26:23;;;;;;;;;;;;;;;19.10;95.62;101919.81;10631396;27;20319;-69
2023/08/17 00:31:25;;;;;;;;;;;;;;;19.01;96.55;101926.63;10632861;27;19923;-69
2023/08/17 00:36:28;;;;;;;;;;;;;;;18.87;96.22;101927.69;10631997;27;20413;-69
2023/08/17 00:41:30;;;;;;;;;;;;;;;18.79;96.33;101930.03;10631717;27;20385;-69
2023/08/17 00:46:32;;;;;;;;;;;;;;;18.59;97.65;101920.88;10631329;27;19927;-69
2023/08/17 00:51:35;;;;;;;;;;;;;;;18.77;98.71;101929.28;10632049;27;19930;-69
2023/08/17 00:56:37;;;;;;;;;;;;;;;18.53;98.60;101916.06;10641173;22;19966;-73
2023/08/17 01:01:39;;;;;;;;;;;;;;;18.25;100.00;101923.34;10589246;28;19950;-75
2023/08/17 01:06:41;;;;;;;;;;;;;;;18.56;97.94;101924.63;10588197;28;19967;-76
2023/08/17 01:11:59;;;;;;;;;;;;;;;18.69;96.86;101919.28;10553948;28;19924;-76
2023/08/17 01:17:03;;;;;;;;;;;;;;;18.29;98.64;101911.59;10570503;28;20006;-75
2023/08/17 01:22:07;;;;;;;;;;;;;;;18.16;100.00;101908.13;10569578;28;20390;-75
2023/08/17 01:27:09;;;;;;;;;;;;;;;18.30;100.00;101905.31;10569981;28;19923;-76
2023/08/17 01:32:20;;;;;;;;;;;;;;;17.89;100.00;101892.41;10587214;28;19924;-75
2023/08/17 01:37:23;;;;;;;;;;;;;;;17.99;100.00;101899.56;10585972;28;19923;-76
2023/08/17 01:42:25;;;;;;;;;;;;;;;18.08;99.19;101900.72;10569365;28;20003;-75
2023/08/17 01:47:27;;;;;;;;;;;;;;;18.05;99.50;101889.50;10568427;28;20353;-76
2023/08/17 01:52:30;;;;;;;;;;;;;;;17.89;100.00;101889.75;10587043;28;19928;-76
2023/08/17 01:57:32;;;;;;;;;;;;;;;17.60;100.00;101889.94;10567997;28;20354;-75
2023/08/17 02:02:34;;;;;;;;;;;;;;;17.26;100.00;101881.69;10585982;28;19924;-76
2023/08/17 02:07:37;;;;;;;;;;;;;;;17.52;100.00;101887.00;10585751;28;19924;-75
2023/08/17 02:12:39;;;;;;;;;;;;;;;17.27;100.00;101889.53;10568277;28;19934;-75
2023/08/17 02:17:41;;;;;;;;;;;;;;;17.44;100.00;101883.06;10567241;28;20395;-75
2023/08/17 02:22:43;;;;;;;;;;;;;;;16.97;100.00;101900.41;10567711;28;19928;-75
2023/08/17 02:27:46;;;;;;;;;;;;;;;17.27;100.00;101902.75;10584905;28;19947;-75
2023/08/17 02:32:48;;;;;;;;;;;;;;;17.36;100.00;101901.28;10584708;28;19946;-75
2023/08/17 02:37:50;;;;;;;;;;;;;;;17.53;100.00;101891.34;10584483;28;20342;-75
2023/08/17 02:42:52;;;;;;;;;;;;;;;17.37;100.00;101888.91;10566917;28;19930;-75
2023/08/17 02:47:55;;;;;;;;;;;;;;;17.51;100.00;101886.16;10584494;28;19930;-76
2023/08/17 02:52:57;;;;;;;;;;;;;;;17.17;100.00;101885.81;10584039;28;19955;-75
2023/08/17 02:57:59;;;;;;;;;;;;;;;17.35;100.00;101880.22;10583789;28;19928;-75
2023/08/17 03:03:01;;;;;;;;;;;;;;;17.61;100.00;101873.13;10565543;28;20297;-75
2023/08/17 03:08:04;;;;;;;;;;;;;;;17.46;100.00;101881.16;10583930;28;19974;-75
2023/08/17 03:13:06;;;;;;;;;;;;;;;17.30;100.00;101877.91;10583877;28;19924;-75
2023/08/17 03:18:09;;;;;;;;;;;;;;;17.57;100.00;101876.94;10565645;28;19928;-75
2023/08/17 03:23:11;;;;;;;;;;;;;;;17.35;100.00;101874.91;10582966;28;19930;-76
2023/08/17 03:28:13;;;;;;;;;;;;;;;17.29;100.00;101878.00;10583304;28;19930;-75
2023/08/17 03:33:15;;;;;;;;;;;;;;;17.45;100.00;101882.13;10582587;28;19934;-75
2023/08/17 03:38:18;;;;;;;;;;;;;;;17.30;100.00;101883.19;10564380;28;20297;-75
2023/08/17 03:43:20;;;;;;;;;;;;;;;17.27;100.00;101872.81;10564944;28;19924;-75
2023/08/17 03:48:22;;;;;;;;;;;;;;;17.47;100.00;101868.78;10582099;28;19931;-76
2023/08/17 03:53:25;;;;;;;;;;;;;;;16.98;100.00;101861.56;10582114;28;20372;-76
2023/08/17 03:58:32;;;;;;;;;;;;;;;17.24;100.00;101865.91;10584688;28;19924;-77
2023/08/17 04:03:34;;;;;;;;;;;;;;;16.94;100.00;101873.31;10591105;28;19946;-75
2023/08/17 04:08:37;;;;;;;;;;;;;;;17.33;100.00;101882.13;10591224;28;19924;-76
2023/08/17 04:13:39;;;;;;;;;;;;;;;17.22;100.00;101878.41;10591631;28;19928;-77
2023/08/17 04:18:41;;;;;;;;;;;;;;;17.14;100.00;101883.38;10572113;28;19924;-76
2023/08/17 04:23:44;;;;;;;;;;;;;;;17.08;100.00;101891.75;10590637;28;19931;-75
2023/08/17 04:28:46;;;;;;;;;;;;;;;17.06;100.00;101902.44;10572241;28;19924;-75
2023/08/17 04:33:49;;;;;;;;;;;;;;;16.95;100.00;101898.81;10590244;28;19930;-75
2023/08/17 04:38:51;;;;;;;;;;;;;;;16.94;100.00;101894.47;10571420;28;20375;-78
2023/08/17 04:43:53;;;;;;;;;;;;;;;16.87;100.00;101896.69;10589971;28;20006;-77
2023/08/17 04:48:55;;;;;;;;;;;;;;;16.90;100.00;101893.84;10571736;28;19931;-77
2023/08/17 04:53:57;;;;;;;;;;;;;;;16.90;100.00;101892.03;10589796;28;19931;-78
2023/08/17 04:59:00;;;;;;;;;;;;;;;16.74;100.00;101893.94;10588949;28;20359;-78
2023/08/17 05:04:02;;;;;;;;;;;;;;;16.90;100.00;101892.03;10571196;28;19923;-76
2023/08/17 05:09:05;;;;;;;;;;;;;;;17.04;100.00;101893.72;10570790;28;19924;-77
2023/08/17 05:14:08;;;;;;;;;;;;;;;17.06;100.00;101893.63;10588042;28;20281;-77
2023/08/17 05:19:11;;;;;;;;;;;;;;;17.07;100.00;101895.34;10588510;28;19924;-76
2023/08/17 05:24:13;;;;;;;;;;;;;;;16.92;100.00;101897.22;10587679;28;19924;-76
2023/08/17 05:29:15;;;;;;;;;;;;;;;17.22;100.00;101896.09;10569267;28;19928;-76
2023/08/17 05:34:17;;;;;;;;;;;;;;;17.15;100.00;101894.84;10587219;28;20293;-75
2023/08/17 05:39:20;;;;;;;;;;;;;;;17.02;100.00;101893.00;10587645;28;19927;-74
2023/08/17 05:44:22;;;;;;;;;;;;;;;17.20;100.00;101898.84;10587458;28;19960;-74
2023/08/17 05:49:24;;;;;;;;;;;;;;;17.09;100.00;101898.72;10587152;28;19930;-75
2023/08/17 05:54:26;;;;;;;;;;;;;;;17.43;100.00;101892.00;10586371;28;19930;-75
2023/08/17 05:59:29;;;;;;;;;;;;;;;17.44;100.00;101898.13;10586010;28;20286;-73
2023/08/17 06:04:31;;;;;;;;;;;;;;;17.59;100.00;101901.50;10586571;28;19963;-74
2023/08/17 06:09:33;;;;;;;;;;;;;;;17.48;100.00;101910.19;10585585;28;19924;-74
2023/08/17 06:14:35;;;;;;;;;;;;;;;17.81;100.00;101909.63;10586205;28;19966;-74
2023/08/17 06:19:39;;;;;;;;;;;;;;;17.90;100.00;101910.81;10567748;28;19930;-74
2023/08/17 06:24:41;;;;;;;;;;;;;;;17.96;100.00;101901.59;10585537;28;19924;-75
2023/08/17 06:29:43;;;;;;;;;;;;;;;17.96;100.00;101907.72;10567392;28;19930;-74
2023/08/17 06:34:46;;;;;;;;;;;;;;;18.27;99.58;101907.34;10585282;28;20388;-74
2023/08/17 06:39:48;;;;;;;;;;;;;;;18.57;98.58;101907.72;10567149;28;20014;-74
2023/08/17 06:44:50;;;;;;;;;;;;;;;18.48;98.72;101910.25;10584953;28;19927;-74
2023/08/17 06:49:52;;;;;;;;;;;;;;;18.50;97.40;101911.81;10584650;28;19953;-75
2023/08/17 06:54:55;;;;;;;;;;;;;;;18.43;99.02;101920.34;10584545;28;19930;-74
2023/08/17 06:59:57;;;;;;;;;;;;;;;18.02;100.00;101909.09;10584288;28;19930;-74
2023/08/17 07:04:59;;;;;;;;;;;;;;;18.08;99.53;101915.78;10583517;28;19976;-74
2023/08/17 07:10:02;;;;;;;;;;;;;;;17.96;100.00;101920.16;10565274;28;19924;-73
2023/08/17 07:15:05;;;;;;;;;;;;;;;18.34;100.00;101919.19;10583186;28;20366;-75
2023/08/17 07:20:08;;;;;;;;;;;;;;;18.08;100.00;101919.25;10565786;28;19931;-74
2023/08/17 07:25:13;;;;;;;;;;;;;;;18.29;99.69;101916.00;10565966;28;20003;-74
2023/08/17 07:30:15;;;;;;;;;;;;;;;18.30;99.82;101915.91;10583773;28;19978;-74
2023/08/17 07:35:17;;;;;;;;;;;;;;;18.48;100.00;101924.34;10581746;28;20022;-76
2023/08/17 07:40:20;;;;;;;;;;;;;;;18.10;100.00;101927.09;10564352;28;20334;-68
2023/08/17 07:45:22;;;;;;;;;;;;;;;18.20;100.00;101922.84;10582281;28;20286;-76
2023/08/17 07:50:24;;;;;;;;;;;;;;;18.23;100.00;101922.63;10582757;28;19924;-75
2023/08/17 07:55:26;;;;;;;;;;;;;;;18.43;100.00;101923.00;10582826;28;20014;-76
2023/08/17 08:00:29;;;;;;;;;;;;;;;18.59;100.00;101915.56;10564247;28;19930;-76
2023/08/17 08:05:31;;;;;;;;;;;;;;;18.30;100.00;101929.16;10565022;28;19924;-76
2023/08/17 08:10:33;;;;;;;;;;;;;;;18.77;100.00;101933.75;10581718;28;20386;-76
2023/08/17 08:15:36;;;;;;;;;;;;;;;18.73;98.19;101933.16;10564851;28;19924;-76
2023/08/17 08:20:38;;;;;;;;;;;;;;;18.18;100.00;101935.34;10563558;28;20306;-76
2023/08/17 08:25:40;;;;;;;;;;;;;;;18.75;99.57;101937.38;10581870;28;20018;-76
2023/08/17 08:30:43;;;;;;;;;;;;;;;18.60;100.00;101937.66;10582047;28;19931;-76
2023/08/17 08:35:45;;;;;;;;;;;;;;;18.25;100.00;101943.72;10581941;28;19923;-76
2023/08/17 08:40:48;;;;;;;;;;;;;;;18.72;98.45;101929.63;10563939;28;19924;-76
2023/08/17 08:45:51;;;;;;;;;;;;;;;18.70;98.18;101930.72;10551719;28;19928;-77
2023/08/17 08:50:54;;;;;;;;;;;;;;;18.33;98.89;101944.00;10570900;28;19923;-77
2023/08/17 08:55:57;;;;;;;;;;;;;;;18.14;100.00;101944.47;10571365;28;19930;-77
2023/08/17 09:00:59;;;;;;;;;;;;;;;18.91;98.75;101944.22;10589001;28;19987;-77
2023/08/17 09:06:03;;;;;;;;;;;;;;;18.63;97.46;101932.13;10588954;28;19962;-77
2023/08/17 09:11:05;;;;;;;;;;;;;;;18.49;100.00;101922.53;10570846;28;19924;-76
2023/08/17 09:16:07;;;;;;;;;;;;;;;19.18;95.32;101912.09;10588669;28;19924;-77
2023/08/17 09:21:19;;;;;;;;;;;;;;;18.91;95.79;101922.97;10588421;28;19931;-77
2023/08/17 09:26:23;;;;;;;;;;;;;;;18.99;97.84;101917.09;10552734;28;19932;-77
2023/08/17 09:31:25;;;;;;;;;;;;;;;18.91;96.03;101915.88;10569999;28;19927;-77
2023/08/17 09:36:27;;;;;;;;;;;;;;;18.70;98.90;101910.34;10587668;28;19924;-77
2023/08/17 09:41:30;;;;;;;;;;;;;;;18.46;100.00;101906.81;10587528;28;19928;-77
2023/08/17 09:46:32;;;;;;;;;;;;;;;18.97;100.00;101905.78;10568685;28;20007;-77
2023/08/17 09:51:34;;;;;;;;;;;;;;;18.59;99.50;101902.31;10586444;28;19946;-77
2023/08/17 09:56:37;;;;;;;;;;;;;;;19.19;97.97;101903.16;10567814;28;19930;-77
2023/08/17 10:01:39;;;;;;;;;;;;;;;18.87;96.68;101906.44;10586850;28;19930;-77
2023/08/17 10:06:41;;;;;;;;;;;;;;;18.90;97.61;101900.91;10567925;28;19924;-77
2023/08/17 10:11:43;;;;;;;;;;;;;;;19.37;96.62;101889.44;10568218;28;19930;-76
2023/08/17 10:16:46;;;;;;;;;;;;;;;19.58;94.37;101884.25;10567516;28;20314;-77
2023/08/17 10:21:49;;;;;;;;;;;;;;;19.93;94.13;101888.63;10568043;28;19930;-77
2023/08/17 10:26:52;;;;;;;;;;;;;;;19.59;97.22;101888.63;10550381;28;20285;-77
2023/08/17 10:31:56;;;;;;;;;;;;;;;19.30;94.72;101876.66;10567688;28;19931;-76
2023/08/17 10:36:58;;;;;;;;;;;;;;;19.55;95.27;101869.44;10567374;28;19923;-77
2023/08/17 10:42:01;;;;;;;;;;;;;;;19.41;95.70;101870.47;10567158;28;20010;-77
2023/08/17 10:47:22;;;;;;;;;;;;;;;19.91;94.16;101874.63;10566930;28;20010;-77
2023/08/17 10:52:25;;;;;;;;;;;;;;;19.64;97.31;101871.34;10584750;28;19924;-77
2023/08/17 10:57:29;;;;;;;;;;;;;;;19.65;97.52;101864.22;10566284;28;19924;-77
2023/08/17 11:02:34;;;;;;;;;;;;;;;19.82;95.06;101866.41;10566434;28;19927;-77
2023/08/17 11:07:41;;;;;;;;;;;;;;;20.01;96.63;101865.78;10565976;28;20409;-78
2023/08/17 11:12:43;;;;;;;;;;;;;;;19.64;96.48;101873.16;10565994;28;20089;-77
2023/08/17 11:17:46;;;;;;;;;;;;;;;19.52;95.95;101871.44;10565889;28;19924;-77
2023/08/17 11:22:48;;;;;;;;;;;;;;;19.53;100.00;101881.13;10583719;28;19969;-78
2023/08/17 11:27:50;;;;;;;;;;;;;;;19.79;96.76;101881.78;10565416;28;20030;-77
2023/08/17 11:32:53;;;;;;;;;;;;;;;20.03;96.95;101873.63;10565288;28;19931;-77
2023/08/17 11:37:55;;;;;;;;;;;;;;;20.16;93.92;101877.00;10565130;28;19973;-77
2023/08/17 11:42:57;;;;;;;;;;;;;;;20.38;92.61;101881.41;10564355;28;20295;-77
2023/08/17 11:48:00;;;;;;;;;;;;;;;20.05;94.64;101879.66;10582826;28;20007;-78
2023/08/17 11:53:02;;;;;;;;;;;;;;;19.91;96.22;101891.41;10564789;28;19924;-78
2023/08/17 11:58:04;;;;;;;;;;;;;;;20.08;96.54;101879.41;10582508;28;20007;-78
2023/08/17 12:03:15;;;;;;;;;;;;;;;19.77;97.79;101873.91;10565310;28;20026;-78
2023/08/17 12:08:17;;;;;;;;;;;;;;;20.10;94.33;101877.47;10564561;28;19928;-78
2023/08/17 12:13:20;;;;;;;;;;;;;;;20.16;96.37;101863.69;10564826;28;19924;-77
2023/08/17 12:18:22;;;;;;;;;;;;;;;19.65;96.60;101869.53;10583156;28;19924;-77
2023/08/17 12:23:24;;;;;;;;;;;;;;;20.00;96.19;101866.72;10590112;28;20370;-77
2023/08/17 12:28:26;;;;;;;;;;;;;;;19.66;96.79;101880.03;10589864;28;20302;-77
2023/08/17 12:33:29;;;;;;;;;;;;;;;20.21;97.75;101874.81;10572337;28;20010;-78
2023/08/17 12:38:31;;;;;;;;;;;;;;;20.03;95.48;101871.81;10571480;28;20302;-78
2023/08/17 12:43:33;;;;;;;;;;;;;;;20.00;95.55;101863.25;10590051;28;20016;-77
2023/08/17 12:48:35;;;;;;;;;;;;;;;20.55;94.20;101873.84;10590296;28;20019;-77
2023/08/17 12:53:38;;;;;;;;;;;;;;;20.60;95.40;101874.31;10589673;28;19924;-78
2023/08/17 12:58:40;;;;;;;;;;;;;;;20.26;97.03;101873.56;10588834;28;19994;-77
2023/08/17 13:03:42;;;;;;;;;;;;;;;20.20;95.63;101870.44;10570551;28;19931;-77
2023/08/17 13:08:44;;;;;;;;;;;;;;;20.16;97.08;101877.00;10588247;28;19924;-77
2023/08/17 13:13:47;;;;;;;;;;;;;;;20.68;93.46;101882.53;10621557;22;19924;-77
2023/08/17 13:18:49;;;;;;;;;;;;;;;20.61;97.00;101881.31;10631210;27;19923;-77
2023/08/17 13:23:51;;;;;;;;;;;;;;;20.64;95.67;101878.41;10631077;27;19923;-75
2023/08/17 13:28:53;;;;;;;;;;;;;;;20.42;93.70;101879.31;10630740;27;19923;-77
2023/08/17 13:33:56;;;;;;;;;;;;;;;20.18;96.41;101876.88;10628620;27;19924;-77
2023/08/17 13:38:58;;;;;;;;;;;;;;;20.08;98.97;101871.44;10630384;27;19923;-77
2023/08/17 13:44:02;;;;;;;;;;;;;;;20.18;98.71;101864.41;10630742;27;19931;-77
2023/08/17 13:49:04;;;;;;;;;;;;;;;20.63;94.41;101857.25;10630210;27;20010;-77
2023/08/17 13:54:07;;;;;;;;;;;;;;;20.74;95.78;101854.56;10629317;27;20279;-77
2023/08/17 13:59:09;;;;;;;;;;;;;;;20.77;96.10;101862.28;10627753;27;20362;-77
2023/08/17 14:04:12;;;;;;;;;;;;;;;20.15;98.24;101851.34;10629611;27;20023;-77
2023/08/17 14:09:14;;;;;;;;;;;;;;;20.23;99.05;101854.25;10628867;27;20370;-77
2023/08/17 14:14:16;;;;;;;;;;;;;;;20.26;98.68;101849.63;10628293;27;19930;-77
2023/08/17 14:19:19;;;;;;;;;;;;;;;20.45;98.22;101851.63;10627605;27;19924;-77
2023/08/17 14:24:21;;;;;;;;;;;;;;;19.90;100.00;101849.84;10626710;27;19959;-77
2023/08/17 14:29:23;;;;;;;;;;;;;;;20.01;100.00;101846.34;10628059;27;20010;-77
2023/08/17 14:34:25;;;;;;;;;;;;;;;20.37;100.00;101842.47;10627426;27;19927;-77
2023/08/17 14:39:28;;;;;;;;;;;;;;;20.09;100.00;101848.34;10626097;27;19924;-77
2023/08/17 14:44:30;;;;;;;;;;;;;;;20.25;100.00;101835.50;10609027;27;19933;-78
2023/08/17 14:49:32;;;;;;;;;;;;;;;19.91;100.00;101829.44;10627462;27;19924;-77
2023/08/17 14:54:35;;;;;;;;;;;;;;;20.05;100.00;101831.81;10625461;27;20445;-77
2023/08/17 14:59:37;;;;;;;;;;;;;;;19.72;100.00;101838.88;10625308;27;20370;-77
2023/08/17 15:04:39;;;;;;;;;;;;;;;20.09;100.00;101835.06;10626299;27;19945;-77
2023/08/17 15:09:42;;;;;;;;;;;;;;;19.56;100.00;101838.38;10609070;27;19964;-77
2023/08/17 15:14:44;;;;;;;;;;;;;;;19.73;100.00;101821.94;10626397;27;19959;-77
2023/08/17 15:19:46;;;;;;;;;;;;;;;19.99;100.00;101811.06;10625187;27;19934;-75
2023/08/17 15:24:48;;;;;;;;;;;;;;;20.19;100.00;101804.97;10624312;27;19924;-75
2023/08/17 15:29:51;;;;;;;;;;;;;;;20.57;100.00;101816.88;10625341;27;20021;-75
2023/08/17 15:34:55;;;;;;;;;;;;;;;19.59;100.00;101807.13;10624562;27;20391;-75
2023/08/17 15:39:58;;;;;;;;;;;;;;;19.51;100.00;101806.03;10625735;27;19959;-75
2023/08/17 15:45:00;;;;;;;;;;;;;;;19.68;100.00;101797.56;10625566;27;19927;-75
2023/08/17 15:50:02;;;;;;;;;;;;;;;19.74;100.00;101791.75;10624721;27;20362;-75
2023/08/17 15:55:05;;;;;;;;;;;;;;;19.79;100.00;101792.25;10623909;27;19946;-75
2023/08/17 16:00:08;;;;;;;;;;;;;;;19.74;100.00;101781.13;10625265;28;20316;-75
2023/08/17 16:05:10;;;;;;;;;;;;;;;19.91;100.00;101779.78;10625152;28;19934;-75
2023/08/17 16:10:12;;;;;;;;;;;;;;;19.57;100.00;101776.31;10625036;28;20030;-75
2023/08/17 16:15:14;;;;;;;;;;;;;;;20.29;100.00;101769.63;10624484;28;20346;-75
2023/08/17 16:20:17;;;;;;;;;;;;;;;20.23;100.00;101761.19;10624851;28;20010;-76
2023/08/17 16:25:19;;;;;;;;;;;;;;;20.30;100.00;101769.50;10623488;28;19931;-71
2023/08/17 16:30:21;;;;;;;;;;;;;;;19.86;100.00;101768.69;10622779;28;20382;-71
2023/08/17 16:35:23;;;;;;;;;;;;;;;19.86;100.00;101764.22;10623369;28;19930;-71
2023/08/17 16:40:30;;;;;;;;;;;;;;;19.96;100.00;101769.63;10624404;28;19928;-70
2023/08/17 16:45:39;;;;;;;;;;;;;;;19.78;100.00;101758.69;10623684;28;19923;-71
2023/08/17 16:50:42;;;;;;;;;;;;;;;20.02;100.00;101762.94;10624131;28;19923;-71
2023/08/17 16:55:45;;;;;;;;;;;;;;;20.18;100.00;101759.88;10624681;28;19970;-71
2023/08/17 17:00:55;;;;;;;;;;;;;;;19.92;100.00;101756.72;10624216;27;20010;-71
2023/08/17 17:05:57;;;;;;;;;;;;;;;19.98;100.00;101751.72;10626009;27;19923;-71
2023/08/17 17:10:59;;;;;;;;;;;;;;;20.17;100.00;101742.22;10630875;27;20381;-71
2023/08/17 17:16:01;;;;;;;;;;;;;;;20.11;100.00;101748.09;10629567;27;19923;-71
2023/08/17 17:21:06;;;;;;;;;;;;;;;20.17;100.00;101742.22;10629348;27;20293;-71
2023/08/17 17:26:08;;;;;;;;;;;;;;;19.95;100.00;101744.00;10630955;27;19930;-71
2023/08/17 17:31:10;;;;;;;;;;;;;;;20.15;100.00;101746.84;10630664;27;19934;-71
2023/08/17 17:36:13;;;;;;;;;;;;;;;20.03;100.00;101749.53;10628725;27;20341;-71
2023/08/17 17:41:15;;;;;;;;;;;;;;;19.72;100.00;101747.66;10629221;27;19930;-71
2023/08/17 17:46:18;;;;;;;;;;;;;;;19.71;100.00;101738.88;10630287;27;20014;-71
2023/08/17 17:51:21;;;;;;;;;;;;;;;19.47;100.00;101752.31;10630066;27;19927;-71
2023/08/17 17:56:36;;;;;;;;;;;;;;;19.84;100.00;101741.41;10629730;27;19924;-71
2023/08/17 18:01:38;;;;;;;;;;;;;;;19.58;100.00;101751.44;10610756;27;20282;-71
2023/08/17 18:06:40;;;;;;;;;;;;;;;19.70;100.00;101753.09;10629311;27;19931;-71
2023/08/17 18:11:43;;;;;;;;;;;;;;;19.78;100.00;101749.88;10629019;27;19930;-71
2023/08/17 18:16:45;;;;;;;;;;;;;;;19.87;100.00;101754.44;10627772;27;19923;-71
2023/08/17 18:21:47;;;;;;;;;;;;;;;19.92;100.00;101759.38;10627462;27;20378;-71
2023/08/17 18:26:49;;;;;;;;;;;;;;;19.76;100.00;101759.78;10627861;27;19923;-71
2023/08/17 18:31:52;;;;;;;;;;;;;;;19.71;100.00;101762.78;10628235;27;19924;-71
2023/08/17 18:36:54;;;;;;;;;;;;;;;19.73;100.00;101767.97;10628121;27;19923;-71
2023/08/17 18:41:56;;;;;;;;;;;;;;;19.55;100.00;101770.28;10626748;27;19929;-71
2023/08/17 18:47:01;;;;;;;;;;;;;;;19.65;100.00;101766.78;10627030;27;19924;-71
2023/08/17 18:52:03;;;;;;;;;;;;;;;19.79;100.00;101773.66;10626248;27;19930;-71
2023/08/17 18:57:05;;;;;;;;;;;;;;;19.84;100.00;101770.63;10626113;27;19924;-71
2023/08/17 19:02:07;;;;;;;;;;;;;;;19.81;100.00;101778.84;10625258;27;20416;-71
2023/08/17 19:07:10;;;;;;;;;;;;;;;19.76;100.00;101773.91;10626915;27;19923;-71
2023/08/17 19:12:13;;;;;;;;;;;;;;;19.40;100.00;101783.84;10626518;27;19923;-71
2023/08/17 19:17:16;;;;;;;;;;;;;;;19.68;100.00;101779.78;10625705;27;19923;-71
2023/08/17 19:22:19;;;;;;;;;;;;;;;19.66;100.00;101765.81;10625155;27;19924;-71
2023/08/17 19:27:21;;;;;;;;;;;;;;;19.48;100.00;101770.78;10624324;27;19927;-71
2023/08/17 19:32:23;;;;;;;;;;;;;;;19.58;100.00;101767.38;10625933;27;19924;-71
2023/08/17 19:37:26;;;;;;;;;;;;;;;19.46;100.00;101774.53;10625865;27;19923;-71
2023/08/17 19:42:30;;;;;;;;;;;;;;;19.67;100.00;101787.91;10625090;27;19946;-71
2023/08/17 19:47:32;;;;;;;;;;;;;;;19.29;100.00;101787.31;10624846;27;20279;-71
2023/08/17 19:52:34;;;;;;;;;;;;;;;19.42;100.00;101784.56;10624725;27;19986;-71
2023/08/17 19:57:37;;;;;;;;;;;;;;;19.62;100.00;101787.44;10624637;27;20366;-71
2023/08/17 20:02:39;;;;;;;;;;;;;;;19.61;100.00;101785.75;10624042;28;19929;-71
2023/08/17 20:07:41;;;;;;;;;;;;;;;19.55;100.00;101791.53;10606346;28;20389;-71
2023/08/17 20:12:44;;;;;;;;;;;;;;;19.31;100.00;101792.50;10624268;28;20392;-71
2023/08/17 20:17:46;;;;;;;;;;;;;;;19.41;100.00;101800.59;10624145;28;20263;-71
2023/08/17 20:22:48;;;;;;;;;;;;;;;19.04;100.00;101795.53;10622913;28;20290;-71
2023/08/17 20:27:51;;;;;;;;;;;;;;;19.20;100.00;101800.47;10624753;27;20062;-71
2023/08/17 20:32:53;;;;;;;;;;;;;;;19.22;100.00;101802.06;10606372;28;19960;-71
2023/08/17 20:37:55;;;;;;;;;;;;;;;19.26;100.00;101800.00;10625083;28;19931;-71
2023/08/17 20:42:58;;;;;;;;;;;;;;;18.93;100.00;101806.97;10630609;27;20360;-71
2023/08/17 20:48:00;;;;;;;;;;;;;;;18.88;100.00;101811.78;10632574;27;19923;-71
2023/08/17 20:53:03;;;;;;;;;;;;;;;18.63;100.00;101813.63;10631601;27;19976;-71
2023/08/17 20:58:05;;;;;;;;;;;;;;;18.78;100.00;101814.28;10630299;27;20018;-71
2023/08/17 21:03:07;;;;;;;;;;;;;;;18.74;100.00;101803.06;10631735;27;19946;-71
2023/08/17 21:08:10;;;;;;;;;;;;;;;18.91;100.00;101807.09;10630524;27;19962;-71
2023/08/17 21:13:12;;;;;;;;;;;;;;;18.46;100.00;101809.59;10630091;27;19923;-71
2023/08/17 21:18:14;;;;;;;;;;;;;;;18.62;100.00;101803.97;10631365;27;19927;-71
2023/08/17 21:23:16;;;;;;;;;;;;;;;18.88;100.00;101809.16;10631129;27;19924;-70
2023/08/17 21:28:18;;;;;;;;;;;;;;;19.02;100.00;101800.94;10630905;27;19931;-71
2023/08/17 21:33:21;;;;;;;;;;;;;;;19.06;100.00;101801.56;10630021;27;20380;-71
2023/08/17 21:38:23;;;;;;;;;;;;;;;18.94;100.00;101790.09;10629811;27;19946;-71
2023/08/17 21:43:29;;;;;;;;;;;;;;;18.72;100.00;101793.50;10629157;27;19930;-71
2023/08/17 21:48:31;;;;;;;;;;;;;;;18.66;100.00;101783.34;10629464;27;19978;-71
2023/08/17 21:53:33;;;;;;;;;;;;;;;18.49;100.00;101782.84;10610459;27;19924;-71
2023/08/17 21:58:35;;;;;;;;;;;;;;;18.82;100.00;101788.34;10629068;27;20381;-71
2023/08/17 22:03:37;;;;;;;;;;;;;;;18.99;100.00;101779.13;10628927;27;20289;-71
2023/08/17 22:08:40;;;;;;;;;;;;;;;18.66;100.00;101791.31;10629310;27;19958;-71
2023/08/17 22:13:42;;;;;;;;;;;;;;;18.54;100.00;101785.13;10627132;27;20600;-71
2023/08/17 22:18:45;;;;;;;;;;;;;;;18.79;100.00;101794.72;10628249;27;19923;-71
2023/08/17 22:23:47;;;;;;;;;;;;;;;18.66;100.00;101792.19;10628060;27;19924;-71
2023/08/17 22:28:49;;;;;;;;;;;;;;;18.35;100.00;101791.81;10628502;27;19924;-71
2023/08/17 22:33:51;;;;;;;;;;;;;;;18.49;100.00;101784.63;10627091;27;19936;-71
2023/08/17 22:38:54;;;;;;;;;;;;;;;18.32;100.00;101786.75;10628082;27;19923;-71
2023/08/17 22:43:56;;;;;;;;;;;;;;;18.42;100.00;101783.41;10626089;27;20330;-71
2023/08/17 22:48:58;;;;;;;;;;;;;;;18.41;100.00;101782.56;10625816;27;19923;-71
2023/08/17 22:54:01;;;;;;;;;;;;;;;18.23;100.00;101787.44;10609126;27;19923;-71
2023/08/17 22:59:03;;;;;;;;;;;;;;;18.24;100.00;101777.66;10626619;27;19929;-71
2023/08/17 23:04:05;;;;;;;;;;;;;;;18.37;100.00;101779.31;10625576;27;19924;-71
2023/08/17 23:09:08;;;;;;;;;;;;;;;18.41;100.00;101766.66;10626260;27;19984;-71
2023/08/17 23:14:10;;;;;;;;;;;;;;;18.43;100.00;101772.69;10625944;27;20281;-71
2023/08/17 23:19:13;;;;;;;;;;;;;;;18.40;100.00;101770.28;10626077;27;19968;-71
2023/08/17 23:24:15;;;;;;;;;;;;;;;17.99;100.00;101766.25;10626836;27;19923;-71
2023/08/17 23:29:17;;;;;;;;;;;;;;;18.29;100.00;101756.97;10624365;27;20381;-71
2023/08/17 23:34:19;;;;;;;;;;;;;;;18.17;100.00;101756.94;10625261;27;20366;-71
2023/08/17 23:39:22;;;;;;;;;;;;;;;17.89;100.00;101757.28;10625220;27;20293;-70
2023/08/17 23:44:24;;;;;;;;;;;;;;;17.60;100.00;101750.47;10625701;27;19928;-70
2023/08/17 23:49:28;;;;;;;;;;;;;;;17.81;100.00;101748.06;10624883;27;19931;-70
2023/08/17 23:54:30;;;;;;;;;;;;;;;18.17;100.00;101742.81;10625459;27;19923;-70
2023/08/17 23:59:33;;;;;;;;;;;;;;;18.31;100.00;101747.13;10624190;27;20018;-70
